Map

Track Data

SID SEASON NUMBER BASIN SUBBASIN NAME ISO_TIME NATURE LAT LON WMO_WIND WMO_PRES WMO_AGENCY TRACK_TYPE DIST2LAND LANDFALL IFLAG USA_AGENCY USA_ATCF_ID USA_LAT USA_LON USA_RECORD USA_STATUS USA_WIND USA_PRES USA_SSHS USA_R34_NE USA_R34_SE USA_R34_SW USA_R34_NW USA_R50_NE USA_R50_SE USA_R50_SW USA_R50_NW USA_R64_NE USA_R64_SE USA_R64_SW USA_R64_NW USA_POCI USA_ROCI USA_RMW USA_EYE TOKYO_LAT TOKYO_LON TOKYO_GRADE TOKYO_WIND TOKYO_PRES TOKYO_R50_DIR TOKYO_R50_LONG TOKYO_R50_SHORT TOKYO_R30_DIR TOKYO_R30_LONG TOKYO_R30_SHORT TOKYO_LAND CMA_LAT CMA_LON CMA_CAT CMA_WIND CMA_PRES HKO_LAT HKO_LON HKO_CAT HKO_WIND HKO_PRES NEWDELHI_LAT NEWDELHI_LON NEWDELHI_GRADE NEWDELHI_WIND NEWDELHI_PRES NEWDELHI_CI NEWDELHI_DP NEWDELHI_POCI REUNION_LAT REUNION_LON REUNION_TYPE REUNION_WIND REUNION_PRES REUNION_TNUM REUNION_CI REUNION_RMW REUNION_R34_NE REUNION_R34_SE REUNION_R34_SW REUNION_R34_NW REUNION_R50_NE REUNION_R50_SE REUNION_R50_SW REUNION_R50_NW REUNION_R64_NE REUNION_R64_SE REUNION_R64_SW REUNION_R64_NW BOM_LAT BOM_LON BOM_TYPE BOM_WIND BOM_PRES BOM_TNUM BOM_CI BOM_RMW BOM_R34_NE BOM_R34_SE BOM_R34_SW BOM_R34_NW BOM_R50_NE BOM_R50_SE BOM_R50_SW BOM_R50_NW BOM_R64_NE BOM_R64_SE BOM_R64_SW BOM_R64_NW BOM_ROCI BOM_POCI BOM_EYE BOM_POS_METHOD BOM_PRES_METHOD NADI_LAT NADI_LON NADI_CAT NADI_WIND NADI_PRES WELLINGTON_LAT WELLINGTON_LON WELLINGTON_WIND WELLINGTON_PRES DS824_LAT DS824_LON DS824_STAGE DS824_WIND DS824_PRES TD9636_LAT TD9636_LON TD9636_STAGE TD9636_WIND TD9636_PRES TD9635_LAT TD9635_LON TD9635_WIND TD9635_PRES TD9635_ROCI NEUMANN_LAT NEUMANN_LON NEUMANN_CLASS NEUMANN_WIND NEUMANN_PRES MLC_LAT MLC_LON MLC_CLASS MLC_WIND MLC_PRES USA_GUST BOM_GUST BOM_GUST_PER REUNION_GUST REUNION_GUST_PER USA_SEAHGT USA_SEARAD_NE USA_SEARAD_SE USA_SEARAD_SW USA_SEARAD_NW STORM_SPEED STORM_DIR
2000006S15164 2000 2 SP MM IRIS 2000-01-06 00:00:00 TS -14.6000 164.100 main 259 259 O___________O_ jtwc_sh SH052000 -14.6000 164.100 15 -1 -14.6000 164.100 TC 15 1 136
2000006S15164 2000 2 SP MM IRIS 2000-01-06 03:00:00 TS -14.6400 164.148 main 259 247 P___________P_ SH052000 -14.6400 164.148 17 -1 -14.6400 164.148 TC 17 1 137
2000006S15164 2000 2 SP MM IRIS 2000-01-06 06:00:00 TS -14.7000 164.200 main 247 236 O___________O_ jtwc_sh SH052000 -14.7000 164.200 20 -1 -14.7000 164.200 TC 20 2 145
2000006S15164 2000 2 SP MM IRIS 2000-01-06 09:00:00 TS -14.7925 164.257 main 236 236 P___________P_ SH052000 -14.7925 164.257 20 -1 -14.7925 164.257 TC 20 2 169
2000006S15164 2000 2 SP MM IRIS 2000-01-06 12:00:00 TS -14.9200 164.240 25 1000 nadi main 247 247 O_______O___O_ jtwc_sh SH052000 -14.9000 164.300 20 -1 -15.0000 164.000 25 1000 -15.0000 164.000 25 1000 -14.9000 164.300 TC 20 3 185
2000006S15164 2000 2 SP MM IRIS 2000-01-06 15:00:00 TS -15.0508 164.242 main 249 238 P______IP___P_ SH052000 -14.9925 164.308 22 -1 -15.1675 164.112 27 999 -15.1675 164.112 27 999 -14.9925 164.308 TC 22 3 0
2000006S15164 2000 2 SP MM IRIS 2000-01-06 18:00:00 TS -15.1857 164.257 30 998 nadi main 240 240 O_______O___O_ jtwc_sh SH052000 -15.1000 164.300 25 -1 -15.3000 164.200 30 998 -15.3000 164.200 30 998 -15.1000 164.300 TC 25 3 0
2000006S15164 2000 2 SP MM IRIS 2000-01-06 21:00:00 TS -15.3025 164.271 main 242 242 P______IP___P_ SH052000 -15.2200 164.293 25 -1 -15.3850 164.250 32 997 -15.3850 164.250 32 997 -15.2200 164.293 TC 25 3 170
2000006S15164 2000 2 SP MM IRIS 2000-01-07 00:00:00 TS -15.4500 164.300 35 996 nadi main 245 246 O_______O___O_ jtwc_sh SH052000 -15.4000 164.300 25 -1 -15.5000 164.300 35 996 -15.5000 164.300 35 996 -15.4000 164.300 TC 25 4 171
2000006S15164 2000 2 SP MM IRIS 2000-01-07 03:00:00 TS -15.7212 164.345 main 248 239 P______IP___P_ SH052000 -15.7000 164.313 25 -1 -15.7425 164.378 37 994 -15.7425 164.378 37 994 -15.7000 164.313 TC 25 6 166
2000006S15164 2000 2 SP MM IRIS 2000-01-07 06:00:00 TS -16.0000 164.450 40 992 nadi main 234 228 O_______O___O_ jtwc_sh SH052000 -16.0000 164.400 25 -1 -16.0000 164.500 40 992 -16.0000 164.500 40 992 -16.0000 164.400 TC 25 6 148
2000006S15164 2000 2 SP MM IRIS 2000-01-07 09:00:00 TS -16.1913 164.649 main 232 207 P______IP___P_ SH052000 -16.1950 164.612 25 -1 -16.1875 164.685 45 989 -16.1875 164.685 45 989 -16.1950 164.612 TC 25 5 125
2000006S15164 2000 2 SP MM IRIS 2000-01-07 12:00:00 TS -16.3000 164.900 50 986 nadi main 207 189 O_______O___O_ jtwc_sh SH052000 -16.3000 164.900 25 -1 -16.3000 164.900 50 986 -16.3000 164.900 50 986 -16.3000 164.900 TC 25 5 104
2000006S15164 2000 2 SP MM IRIS 2000-01-07 15:00:00 TS -16.3150 165.154 main 180 163 P______IP___P_ SH052000 -16.3150 165.200 22 -1 -16.3150 165.108 52 983 -16.3150 165.108 52 983 -16.3150 165.200 TC 22 5 90
2000006S15164 2000 2 SP MM IRIS 2000-01-07 18:00:00 TS -16.3000 165.400 55 981 nadi main 163 144 O_______O___O_ jtwc_sh SH052000 -16.3000 165.500 20 -1 -16.3000 165.300 55 981 -16.3000 165.300 55 981 -16.3000 165.500 TC 20 4 93
2000006S15164 2000 2 SP MM IRIS 2000-01-07 21:00:00 TS -16.3349 165.581 main 144 132 P______IP___P_ SH052000 -16.3349 165.750 42 0 -16.3348 165.413 62 976 -16.3348 165.413 62 976 -16.3349 165.750 TC 42 4 105
2000006S15164 2000 2 SP MM IRIS 2000-01-08 00:00:00 TS -16.4000 165.800 70 972 nadi main 132 115 O_______O___O_ jtwc_sh SH052000 -16.4000 166.000 65 1 -16.4000 165.600 70 972 -16.4000 165.600 70 972 -16.4000 166.000 TC 65 6 107
2000006S15164 2000 2 SP MM IRIS 2000-01-08 03:00:00 TS -16.5000 166.134 main 115 85 P______IP___P_ SH052000 -16.4999 166.270 67 1 -16.5001 165.997 75 968 -16.5001 165.997 75 968 -16.4999 166.270 TC 67 7 106
2000006S15164 2000 2 SP MM IRIS 2000-01-08 06:00:00 TS -16.6000 166.550 80 964 nadi main 77 44 O_______O___O_ jtwc_sh SH052000 -16.6000 166.600 70 1 -16.6000 166.500 80 964 -16.6000 166.500 80 964 -16.6000 166.600 TC 70 9 99
2000006S15164 2000 2 SP MM IRIS 2000-01-08 09:00:00 TS -16.6426 167.025 main 44 11 P______IP___P_ SH052000 -16.6426 167.043 70 1 -16.6425 167.008 70 971 -16.6425 167.008 70 971 -16.6426 167.043 TC 70 9 96
2000006S15164 2000 2 SP MM IRIS 2000-01-08 12:00:00 TS -16.7000 167.500 60 978 nadi main 11 11 O_______O___O_ jtwc_sh SH052000 -16.7000 167.500 70 1 -16.7000 167.500 60 978 -16.7000 167.500 60 978 -16.7000 167.500 TC 70 8 104
2000006S15164 2000 2 SP MM IRIS 2000-01-08 15:00:00 TS -16.8385 167.868 main 24 24 P______IP___P_ SH052000 -16.8347 167.835 67 1 -16.8422 167.900 55 982 -16.8422 167.900 57 979 -16.8347 167.835 TC 67 8 113
2000006S15164 2000 2 SP MM IRIS 2000-01-08 18:00:00 TS -17.0000 168.250 50 986 nadi main 69 69 O_______O___O_ jtwc_sh SH052000 -17.0000 168.200 65 1 -17.0000 168.300 50 986 -17.0000 168.300 55 980 -17.0000 168.200 TC 65 9 109
2000006S15164 2000 2 SP MM IRIS 2000-01-08 21:00:00 TS -17.1248 168.732 main 110 110 P______IP___P_ SH052000 -17.1498 168.690 65 1 -17.0999 168.770 52 984 -17.0999 168.778 55 981 -17.1498 168.690 TC 65 10 104
2000006S15164 2000 2 SP MM IRIS 2000-01-09 00:00:00 TS -17.2500 169.300 55 982 nadi main 173 177 O_______O___O_ jtwc_sh SH052000 -17.3000 169.300 65 1 -17.2000 169.300 55 982 -17.2000 169.300 55 982 -17.3000 169.300 TC 65 12 103
2000006S15164 2000 2 SP MM IRIS 2000-01-09 03:00:00 TS -17.3960 169.923 main 240 240 P______IP___P_ SH052000 -17.4425 170.020 62 0 -17.3496 169.855 52 983 -17.3495 169.798 52 983 -17.4425 170.020 TC 62 13 103
2000006S15164 2000 2 SP MM IRIS 2000-01-09 06:00:00 TS -17.5500 170.625 50 984 nadi main 314 314 O_______O___O_ jtwc_sh SH052000 -17.6000 170.800 60 0 -17.5000 170.500 50 984 -17.5000 170.400 50 985 -17.6000 170.800 TC 60 14 101
2000006S15164 2000 2 SP MM IRIS 2000-01-09 09:00:00 TS -17.6649 171.376 main 401 401 P______IP___P_ SH052000 -17.7844 171.528 57 0 -17.5472 171.249 50 984 -17.5433 171.199 50 985 -17.7844 171.528 TC 57 15 101
2000006S15164 2000 2 SP MM IRIS 2000-01-09 12:00:00 TS -17.8500 172.200 50 985 nadi main 486 444 O_______O___O_ jtwc_sh SH052000 -18.0000 172.300 55 0 -17.7000 172.100 50 985 -17.7000 172.100 50 985 -18.0000 172.300 TC 55 17 108
2000006S15164 2000 2 SP MM IRIS 2000-01-09 15:00:00 TS -18.2042 173.086 main 433 402 P______IP___P_ SH052000 -18.2499 173.177 50 0 -18.1996 173.011 47 986 -18.1172 172.978 50 984 -18.2499 173.177 TC 50 19 113
2000006S15164 2000 2 SP MM IRIS 2000-01-09 16:00:00 TS -18.3393 173.400 main 402 344 P______IO___P_ SH052000 -18.3357 173.484 48 0 -18.3861 173.333 46 987 -18.3000 173.300 50 984 -18.3357 173.484 TC 48 20 113
2000006S15164 2000 2 SP MM IRIS 2000-01-09 18:00:00 TS -18.6000 174.050 45 988 nadi main 334 248 O_______O___O_ jtwc_sh SH052000 -18.5000 174.100 45 0 -18.7000 174.000 45 988 -18.7000 174.000 45 988 -18.5000 174.100 TC 45 20 106
2000006S15164 2000 2 SP MM IRIS 2000-01-09 21:00:00 TS -18.7874 175.051 main 238 161 P______IP___P_ SH052000 -18.7074 175.023 45 0 -18.8377 175.074 40 991 -18.8971 175.084 40 991 -18.7074 175.023 TC 45 19 99
2000006S15164 2000 2 SP MM IRIS 2000-01-10 00:00:00 TS -18.9000 176.000 35 994 nadi main 161 123 O_______O___O_ jtwc_sh SH052000 -18.9000 175.900 45 0 -18.9000 176.100 35 994 -18.9000 176.100 35 994 -18.9000 175.900 TC 45 17 101
2000006S15164 2000 2 SP MM IRIS 2000-01-10 03:00:00 TS -19.1170 176.827 main 123 119 P______IP___P_ SH052000 -19.1071 176.695 40 0 -19.1269 176.960 32 996 -19.1269 176.960 32 996 -19.1071 176.695 TC 40 15 107
2000006S15164 2000 2 SP MM IRIS 2000-01-10 06:00:00 TS -19.3538 177.562 30 998 nadi main 127 123 O_______O___O_ jtwc_sh SH052000 -19.3000 177.400 35 0 -19.4000 177.700 30 998 -19.4000 177.700 30 998 -19.3000 177.400 TC 35 14 109
2000006S15164 2000 2 SP MM IRIS 2000-01-10 09:00:00 TS -19.5876 178.240 main 145 145 P______IP___P_ SH052000 -19.4603 178.022 30 -1 -19.6580 178.367 27 999 -19.6797 178.395 27 999 -19.4603 178.022 TC 30 13 110
2000006S15164 2000 2 SP MM IRIS 2000-01-10 12:00:00 TS -19.8000 178.867 25 1000 nadi main 183 183 O_______O___O_ jtwc_sh SH052000 -19.6000 178.600 25 -1 -19.9000 179.000 25 1000 -19.9000 179.000 25 1000 -19.6000 178.600 TC 25 13 108
2000006S15164 2000 2 SP MM IRIS 2000-01-10 15:00:00 NR -19.9902 179.523 main 228 228 ________P_____ SH052000 -1 -19.9902 179.523 25 1000 TC 11 101
2000006S15164 2000 2 SP MM IRIS 2000-01-10 18:00:00 NR -20.0000 180.000 main 252 ________O_____ -1 -20.0000 180.000 25 1000 9 91

Digital Typhoon Data and Search

About IBTrACS Database

This database is a web-friendly format of International Best Track Archive for Climate Stewardship (IBTrACS), a global best track data archive curated by NOAA dating back to 1842.

Updated: 2021-12-06